Terminal Aerodrome Forecast
Issued by NWS Cleveland, OH

Home | Current Version | Previous Version | Graphics & Text | Print | Product List | Glossary On
Versions: 1 2 3 4 5 6 7 8 9 10 11 12 13 14 15
680
FTUS41 KCLE 142342
TAFERI
TAF
KERI 142342Z 1500/1524 16005KT P6SM BKN045
     FM150500 16008KT P6SM SCT035 BKN200
     FM151700 16015G25KT P6SM BKN120 OVC200
     FM152200 19015G25KT P6SM VCSH SCT035 OVC050=

USA.gov is the U.S. government's official web portal to all federal, state and local government web resources and services.